createdAt,value
2022-08-05T00:02:11.551Z,60.83
2022-08-05T00:04:40.287Z,60.90
2022-08-05T00:07:21.720Z,60.94
2022-08-05T00:09:54.585Z,60.92
2022-08-05T00:12:22.200Z,60.88
2022-08-05T00:14:51.672Z,60.94
2022-08-05T00:17:19.439Z,61.03
2022-08-05T00:20:02.239Z,61.12
2022-08-05T00:22:31.015Z,61.35
2022-08-05T00:24:58.457Z,61.28
2022-08-05T00:27:28.370Z,61.29
2022-08-05T00:30:03.384Z,61.34
2022-08-05T00:32:30.465Z,61.48
2022-08-05T00:35:06.881Z,61.35
2022-08-05T00:37:51.376Z,61.33
2022-08-05T00:40:28.485Z,61.45
2022-08-05T00:42:58.351Z,61.44
2022-08-05T00:45:37.918Z,61.56
2022-08-05T00:48:09.187Z,61.43
2022-08-05T00:50:38.064Z,61.44
2022-08-05T00:53:09.507Z,61.44
2022-08-05T00:55:52.780Z,61.48
2022-08-05T00:58:19.629Z,61.76
2022-08-05T01:00:46.750Z,61.94
2022-08-05T01:03:22.814Z,62.04
2022-08-05T01:05:54.680Z,62.01
2022-08-05T01:08:42.111Z,62.12
2022-08-05T01:11:22.074Z,62.26
2022-08-05T01:14:15.267Z,62.28
2022-08-05T01:17:00.436Z,62.17
2022-08-05T01:20:00.976Z,62.24
2022-08-05T01:22:32.434Z,62.45
2022-08-05T01:25:39.890Z,62.65
2022-08-05T01:28:27.054Z,62.65
2022-08-05T01:31:08.857Z,62.73
2022-08-05T01:33:49.260Z,62.47
2022-08-05T01:36:21.088Z,62.47
2022-08-05T01:38:55.801Z,62.56
2022-08-05T01:41:25.696Z,62.51
2022-08-05T01:43:52.994Z,62.57
2022-08-05T01:46:42.810Z,62.42
2022-08-05T01:49:23.181Z,62.68
2022-08-05T01:51:55.277Z,62.57
2022-08-05T01:54:25.733Z,62.52
2022-08-05T01:58:09.432Z,62.63
2022-08-05T01:59:41.481Z,62.59
2022-08-05T02:02:14.598Z,62.68
2022-08-05T02:04:43.647Z,62.73
2022-08-05T02:07:22.082Z,62.68
2022-08-05T02:09:51.000Z,62.76
2022-08-05T02:12:38.790Z,62.69
2022-08-05T02:15:17.329Z,62.86
2022-08-05T02:18:27.730Z,62.98
2022-08-05T02:20:50.590Z,62.97
2022-08-05T02:23:18.706Z,63.15
2022-08-05T02:25:49.267Z,63.09
2022-08-05T02:28:29.195Z,63.22
2022-08-05T02:31:14.708Z,63.12
2022-08-05T02:33:48.538Z,63.11
2022-08-05T02:36:17.170Z,63.09
2022-08-05T02:38:53.447Z,63.08
2022-08-05T02:41:22.936Z,62.94
2022-08-05T02:44:05.932Z,62.97
2022-08-05T02:46:53.323Z,63.08
2022-08-05T02:49:24.355Z,63.18
2022-08-05T02:52:03.917Z,63.16
2022-08-05T02:54:34.927Z,63.09
2022-08-05T02:57:10.311Z,63.19
2022-08-05T02:59:54.513Z,63.17
2022-08-05T03:02:24.864Z,63.17
2022-08-05T03:04:55.168Z,63.10
2022-08-05T03:08:00.612Z,63.11
2022-08-05T03:10:10.164Z,63.37
2022-08-05T03:12:38.641Z,63.42
2022-08-05T03:15:09.329Z,63.53
2022-08-05T03:17:41.479Z,63.47
2022-08-05T03:20:10.399Z,63.54
2022-08-05T03:22:37.497Z,63.53
2022-08-05T03:25:33.175Z,63.53
2022-08-05T03:28:00.360Z,63.68
2022-08-05T03:30:33.751Z,63.67
2022-08-05T03:33:06.311Z,63.75
2022-08-05T03:35:40.981Z,63.67
2022-08-05T03:38:11.198Z,63.70
2022-08-05T03:40:47.209Z,63.74
2022-08-05T03:44:08.930Z,63.65
2022-08-05T03:46:03.488Z,63.67
2022-08-05T03:48:30.637Z,63.77
2022-08-05T03:52:48.982Z,63.73
2022-08-05T03:56:01.369Z,63.79
2022-08-05T03:56:51.691Z,63.73
2022-08-05T03:59:24.548Z,63.78
2022-08-05T04:01:52.359Z,63.91
2022-08-05T04:04:21.223Z,63.88
2022-08-05T04:06:51.102Z,63.96
2022-08-05T04:09:26.113Z,63.96
2022-08-05T04:11:56.876Z,63.86
2022-08-05T04:14:30.437Z,63.93
2022-08-05T04:16:59.713Z,63.92
2022-08-05T04:19:28.612Z,64.00
2022-08-05T04:22:08.896Z,63.88
2022-08-05T04:24:44.189Z,63.93
2022-08-05T04:27:13.521Z,63.95
2022-08-05T04:29:41.214Z,63.80
2022-08-05T04:32:08.647Z,63.91
2022-08-05T04:34:39.652Z,63.94
2022-08-05T04:37:11.423Z,63.90
2022-08-05T04:39:40.100Z,63.76
2022-08-05T04:42:07.537Z,63.74
2022-08-05T04:44:35.965Z,63.69
2022-08-05T04:47:08.975Z,63.86
2022-08-05T04:50:03.003Z,63.93
2022-08-05T04:52:27.421Z,63.89
2022-08-05T04:54:57.364Z,63.72
2022-08-05T04:57:28.693Z,63.61
2022-08-05T04:59:58.435Z,63.76
2022-08-05T05:02:41.997Z,63.63
2022-08-05T05:05:16.681Z,63.28
2022-08-05T05:08:01.082Z,62.95
2022-08-05T05:10:55.779Z,62.93
2022-08-05T05:13:24.024Z,62.85
2022-08-05T05:15:57.319Z,62.83
2022-08-05T05:18:33.079Z,62.87
2022-08-05T05:21:03.072Z,62.90
2022-08-05T05:24:02.189Z,62.86
2022-08-05T05:26:18.749Z,62.66
2022-08-05T05:28:45.693Z,62.61
2022-08-05T05:31:13.148Z,62.54
2022-08-05T05:33:59.696Z,62.43
2022-08-05T05:36:28.821Z,62.60
2022-08-05T05:38:57.493Z,62.48
2022-08-05T05:41:24.687Z,62.51
2022-08-05T05:43:58.410Z,62.30
2022-08-05T05:46:27.696Z,62.27
2022-08-05T05:48:55.054Z,62.23
2022-08-05T05:51:23.648Z,61.96
2022-08-05T05:53:57.671Z,61.92
2022-08-05T05:56:32.452Z,61.80
2022-08-05T05:59:03.163Z,61.70
2022-08-05T06:01:37.715Z,61.94
2022-08-05T06:04:12.188Z,61.67
2022-08-05T06:06:41.741Z,61.46
2022-08-05T06:09:09.148Z,61.20
2022-08-05T06:11:59.589Z,61.14
2022-08-05T06:14:30.974Z,61.50
2022-08-05T06:16:58.580Z,61.16
2022-08-05T06:19:34.844Z,60.87
2022-08-05T06:22:03.973Z,60.80
2022-08-05T06:24:32.195Z,60.27
2022-08-05T06:26:59.768Z,59.26
2022-08-05T06:29:48.145Z,59.85
2022-08-05T06:32:24.921Z,59.59
2022-08-05T06:34:58.378Z,58.75
2022-08-05T06:37:57.286Z,58.68
2022-08-05T06:40:18.399Z,58.59
2022-08-05T06:42:51.631Z,58.74
2022-08-05T06:45:21.244Z,58.80
2022-08-05T06:48:36.147Z,58.87
2022-08-05T06:50:54.415Z,58.78
2022-08-05T06:53:27.617Z,58.60
2022-08-05T06:56:00.109Z,58.16
2022-08-05T06:58:29.959Z,57.96
2022-08-05T07:01:03.607Z,58.20
2022-08-05T07:03:32.522Z,57.85
2022-08-05T07:06:06.293Z,57.94
2022-08-05T07:08:47.598Z,57.50
2022-08-05T07:11:22.109Z,57.35
2022-08-05T07:14:15.504Z,56.97
2022-08-05T07:17:58.330Z,57.13
2022-08-05T07:22:28.646Z,56.11
2022-08-05T07:25:22.064Z,56.92
2022-08-05T07:27:58.606Z,56.35
2022-08-05T07:30:32.607Z,55.29
2022-08-05T07:33:09.491Z,54.80
2022-08-05T07:36:01.876Z,55.09
2022-08-05T07:38:34.420Z,55.46
2022-08-05T07:42:07.063Z,55.87
2022-08-05T07:43:56.548Z,55.71
2022-08-05T07:46:26.206Z,54.89
2022-08-05T07:49:03.591Z,54.94
2022-08-05T07:51:36.723Z,54.80
2022-08-05T07:54:09.702Z,55.39
2022-08-05T07:57:00.202Z,54.63
2022-08-05T07:59:38.244Z,55.17
2022-08-05T08:02:15.492Z,54.70
2022-08-05T08:05:53.680Z,55.01
2022-08-05T13:49:46.462Z,44.90
2022-08-05T13:52:29.147Z,44.85
2022-08-05T13:54:57.289Z,47.07
2022-08-05T13:57:48.586Z,47.49
2022-08-05T14:00:15.141Z,47.03
2022-08-05T14:02:44.585Z,42.98
2022-08-05T14:05:15.383Z,44.73
2022-08-05T14:07:59.965Z,47.17
2022-08-05T14:10:33.236Z,48.00
2022-08-05T14:13:00.280Z,47.95
2022-08-05T14:16:07.266Z,50.31
2022-08-05T14:18:18.372Z,50.14
2022-08-05T14:20:54.362Z,48.66
2022-08-05T14:23:25.603Z,49.05
2022-08-05T14:25:58.246Z,47.84
2022-08-05T14:28:30.348Z,45.81
2022-08-05T14:30:58.356Z,46.51
2022-08-05T14:33:25.613Z,46.75
2022-08-05T14:35:54.530Z,47.99
2022-08-05T14:38:31.663Z,46.36
2022-08-05T14:41:05.845Z,46.42
2022-08-05T14:43:59.392Z,46.55
2022-08-05T14:46:28.031Z,47.05
2022-08-05T14:49:06.569Z,48.83
2022-08-05T14:51:42.588Z,49.25
2022-08-05T14:54:28.048Z,49.14
2022-08-05T14:56:58.921Z,49.60
2022-08-05T14:59:29.640Z,48.49
2022-08-05T15:02:03.496Z,48.49
2022-08-05T15:04:43.404Z,49.25
2022-08-05T15:07:12.028Z,49.30
2022-08-05T15:10:01.598Z,49.05
2022-08-05T15:12:45.671Z,49.16
2022-08-05T15:15:17.404Z,50.43
2022-08-05T15:18:05.849Z,49.97
2022-08-05T15:20:33.071Z,50.11
2022-08-05T15:23:07.472Z,50.07
2022-08-05T15:25:41.062Z,50.21
2022-08-05T15:28:20.250Z,50.10
2022-08-05T15:30:53.066Z,50.16
2022-08-05T15:34:05.170Z,50.19
2022-08-05T15:36:16.874Z,50.97
2022-08-05T15:38:44.946Z,51.69
2022-08-05T15:41:23.102Z,51.91
2022-08-05T15:43:52.366Z,51.71
2022-08-05T15:46:24.104Z,51.59
2022-08-05T15:48:58.664Z,51.74
2022-08-05T15:52:13.742Z,51.30
2022-08-05T15:54:15.770Z,51.16
2022-08-05T15:56:43.683Z,51.30
2022-08-05T15:59:21.774Z,51.02
2022-08-05T16:01:52.247Z,50.86
2022-08-05T16:04:25.353Z,50.42
2022-08-05T16:06:56.166Z,50.60
2022-08-05T16:09:24.446Z,50.52
2022-08-05T16:11:53.200Z,50.68
2022-08-05T16:14:24.710Z,50.41
2022-08-05T16:16:51.760Z,50.66
2022-08-05T16:20:02.932Z,50.83
2022-08-05T16:22:06.692Z,50.81
2022-08-05T16:24:41.548Z,50.76
2022-08-05T16:27:18.871Z,50.73
2022-08-05T16:29:50.151Z,51.04
2022-08-05T16:32:23.226Z,50.73
2022-08-05T16:34:55.511Z,50.96
2022-08-05T16:38:02.549Z,51.17
2022-08-05T16:40:25.016Z,51.15
2022-08-05T16:42:56.281Z,51.05
2022-08-05T16:46:03.965Z,51.08
2022-08-05T16:48:10.527Z,51.19
2022-08-05T16:50:37.867Z,51.27
2022-08-05T16:53:11.923Z,51.30
2022-08-05T16:55:46.951Z,51.20
2022-08-05T16:58:14.595Z,51.48
2022-08-05T17:00:48.177Z,51.40
2022-08-05T17:03:20.538Z,51.46
2022-08-05T17:05:53.603Z,51.59
2022-08-05T17:08:36.072Z,51.71
2022-08-05T17:11:12.710Z,51.74
2022-08-05T17:13:45.651Z,51.79
2022-08-05T17:16:33.145Z,51.77
2022-08-05T17:19:00.812Z,51.83
2022-08-05T17:21:35.735Z,51.72
2022-08-05T17:24:28.183Z,51.91
2022-08-05T17:26:57.685Z,52.12
2022-08-05T17:29:33.180Z,52.11
2022-08-05T17:32:17.193Z,52.27
2022-08-05T17:34:49.105Z,52.49
2022-08-05T17:37:40.865Z,52.51
2022-08-05T17:40:10.100Z,52.37
2022-08-05T17:42:43.039Z,52.37
2022-08-05T17:45:20.020Z,52.59
2022-08-05T17:47:53.394Z,52.77
2022-08-05T17:50:28.934Z,52.70
2022-08-05T17:53:02.961Z,52.47
2022-08-05T17:55:37.548Z,52.63
2022-08-05T17:58:12.449Z,52.59
2022-08-05T18:00:45.145Z,52.65
2022-08-05T18:06:11.512Z,52.89
2022-08-05T18:08:44.836Z,52.93
2022-08-05T18:11:23.616Z,53.21
2022-08-05T18:13:53.467Z,53.20
2022-08-05T18:16:21.137Z,53.08
2022-08-05T18:18:50.157Z,53.31
2022-08-05T18:21:19.900Z,53.21
2022-08-05T18:23:53.510Z,53.26
2022-08-05T18:26:27.739Z,53.37
2022-08-05T18:28:57.488Z,53.48
2022-08-05T18:31:33.856Z,53.58
2022-08-05T18:34:06.220Z,53.39
2022-08-05T18:36:35.529Z,53.52
2022-08-05T18:39:03.787Z,53.56
2022-08-05T18:41:55.808Z,53.62
2022-08-05T18:44:33.311Z,53.74
2022-08-05T18:47:04.301Z,53.83
2022-08-05T18:49:57.813Z,53.86
2022-08-05T18:52:33.559Z,53.88
2022-08-05T18:55:05.042Z,53.91
2022-08-05T18:57:49.964Z,54.11
2022-08-05T19:00:20.374Z,54.03
2022-08-05T19:02:48.161Z,54.05
2022-08-05T19:06:05.549Z,54.11
2022-08-05T19:08:03.026Z,54.26
2022-08-05T19:10:30.699Z,54.26
2022-08-05T19:12:58.659Z,54.41
2022-08-05T19:15:59.020Z,54.49
2022-08-05T19:18:22.461Z,54.46
2022-08-05T19:20:52.400Z,54.56
2022-08-05T19:24:03.671Z,54.63
2022-08-05T19:26:09.270Z,54.74
2022-08-05T19:28:42.234Z,54.94
2022-08-05T19:31:13.262Z,54.84
2022-08-05T19:33:55.651Z,54.78
2022-08-05T19:36:25.358Z,54.91
2022-08-05T19:39:00.537Z,55.04
2022-08-05T19:42:05.341Z,55.13
2022-08-05T19:44:16.719Z,55.18
2022-08-05T19:46:45.500Z,55.20
2022-08-05T19:49:17.240Z,55.39
2022-08-05T19:52:05.860Z,55.53
2022-08-05T19:54:34.307Z,55.52
2022-08-05T19:57:06.632Z,55.56
2022-08-05T19:59:56.036Z,55.65
2022-08-05T20:02:23.570Z,55.73
2022-08-05T20:04:54.048Z,55.80
2022-08-05T20:07:45.724Z,55.80
2022-08-05T20:10:13.507Z,56.00
2022-08-05T20:12:48.012Z,56.10
2022-08-05T20:15:48.971Z,56.12
2022-08-05T20:18:09.737Z,56.16
2022-08-05T20:20:37.071Z,56.20
2022-08-05T20:23:05.654Z,56.25
2022-08-05T20:25:39.736Z,56.35
2022-08-05T20:28:08.104Z,56.39
2022-08-05T20:30:40.826Z,56.57
2022-08-05T20:33:09.002Z,56.55
2022-08-05T20:35:40.282Z,56.61
2022-08-05T20:38:20.010Z,56.57
2022-08-05T20:40:53.804Z,56.53
2022-08-05T20:43:33.403Z,56.54
2022-08-05T20:46:10.537Z,56.55
2022-08-05T20:48:45.371Z,56.77
2022-08-05T20:51:18.051Z,56.84
2022-08-05T20:53:56.772Z,56.84
2022-08-05T20:56:29.695Z,56.77
2022-08-05T20:59:00.156Z,56.78
2022-08-05T21:01:39.035Z,56.85
2022-08-05T21:04:10.847Z,56.83
2022-08-05T21:06:45.132Z,56.99
2022-08-05T21:09:14.438Z,56.95
2022-08-05T21:12:08.990Z,57.05
2022-08-05T21:14:35.300Z,57.28
2022-08-05T21:17:06.106Z,57.21
2022-08-05T21:19:46.442Z,57.17
2022-08-05T21:22:18.536Z,57.21
2022-08-05T21:24:51.577Z,57.53
2022-08-05T21:27:25.027Z,57.44
2022-08-05T21:29:55.818Z,57.61
2022-08-05T21:32:27.449Z,57.70
2022-08-05T21:35:09.032Z,57.57
2022-08-05T21:37:43.709Z,57.58
2022-08-05T21:40:14.630Z,57.62
2022-08-05T21:42:45.302Z,57.65
2022-08-05T21:45:24.979Z,57.72
2022-08-05T21:48:06.357Z,57.72
2022-08-05T21:50:33.657Z,57.85
2022-08-05T21:53:04.585Z,57.94
2022-08-05T21:56:01.576Z,57.93
2022-08-05T21:58:24.860Z,57.93
2022-08-05T22:00:59.637Z,58.02
2022-08-05T22:03:52.067Z,58.03
2022-08-05T22:06:22.449Z,58.05
2022-08-05T22:08:52.199Z,57.96
2022-08-05T22:11:35.170Z,58.02
2022-08-05T22:14:06.569Z,58.07
2022-08-05T22:16:53.024Z,58.10
2022-08-05T22:20:03.522Z,58.17
2022-08-05T22:22:10.969Z,58.28
2022-08-05T22:24:57.884Z,58.26
2022-08-05T22:28:08.539Z,58.25
2022-08-05T22:30:32.450Z,58.36
2022-08-05T22:33:04.367Z,58.15
2022-08-05T22:35:48.606Z,58.28
2022-08-05T22:38:19.722Z,58.35
2022-08-05T22:40:49.642Z,58.24
2022-08-05T22:43:37.032Z,58.47
2022-08-05T22:46:13.501Z,58.44
2022-08-05T22:48:50.610Z,58.47
2022-08-05T22:51:22.898Z,58.66
2022-08-05T22:53:57.029Z,58.60
2022-08-05T22:56:30.543Z,58.60
2022-08-05T22:59:04.142Z,58.55
2022-08-05T23:02:04.857Z,58.53
2022-08-05T23:04:34.043Z,58.60
2022-08-05T23:07:01.100Z,58.63
2022-08-05T23:09:57.251Z,58.75
2022-08-05T23:12:18.007Z,58.73
2022-08-05T23:14:45.074Z,58.77
2022-08-05T23:17:34.105Z,58.72
2022-08-05T23:20:05.693Z,58.86
2022-08-05T23:22:37.662Z,58.85
2022-08-05T23:25:05.531Z,58.85
2022-08-05T23:27:42.535Z,58.95
2022-08-05T23:30:21.547Z,58.97
2022-08-05T23:32:54.342Z,59.00
2022-08-05T23:35:21.387Z,58.98
2022-08-05T23:37:48.544Z,59.25
2022-08-05T23:40:15.557Z,59.07
2022-08-05T23:42:47.406Z,59.06
2022-08-05T23:45:20.659Z,59.17
2022-08-05T23:47:53.616Z,59.25
2022-08-05T23:50:26.605Z,59.34
2022-08-05T23:52:55.739Z,59.35
2022-08-05T23:55:24.657Z,59.54
2022-08-05T23:57:58.134Z,59.64
